createdAt,value
2023-05-21T00:00:53.830Z,17.30
2023-05-21T00:03:21.108Z,17.80
2023-05-21T00:05:50.016Z,17.43
2023-05-21T00:08:16.834Z,18.53
2023-05-21T00:10:43.627Z,17.60
2023-05-21T00:13:10.484Z,20.47
2023-05-21T00:15:37.636Z,18.67
2023-05-21T00:18:05.649Z,18.10
2023-05-21T00:20:32.805Z,19.00
2023-05-21T00:23:02.673Z,20.33
2023-05-21T00:25:29.317Z,19.20
2023-05-21T00:27:56.268Z,20.07
2023-05-21T00:30:23.166Z,19.80
2023-05-21T00:32:49.773Z,20.50
2023-05-21T00:35:16.546Z,20.20
2023-05-21T00:37:43.371Z,20.77
2023-05-21T00:40:11.589Z,21.13
2023-05-21T00:42:41.544Z,20.53
2023-05-21T00:45:08.704Z,20.60
2023-05-21T00:47:35.872Z,20.80
2023-05-21T00:50:06.335Z,21.10
2023-05-21T00:52:41.392Z,21.07
2023-05-21T00:55:09.680Z,21.30
2023-05-21T00:57:37.185Z,20.73
2023-05-21T01:00:08.659Z,21.17
2023-05-21T01:02:37.238Z,20.60
2023-05-21T01:05:05.931Z,20.20
2023-05-21T01:07:34.822Z,21.63
2023-05-21T01:10:04.041Z,21.57
2023-05-21T01:12:32.568Z,21.20
2023-05-21T01:15:03.982Z,22.00
2023-05-21T01:17:31.837Z,21.20
2023-05-21T01:19:59.339Z,21.83
2023-05-21T01:22:28.522Z,21.63
2023-05-21T01:24:55.483Z,22.07
2023-05-21T01:27:22.831Z,22.03
2023-05-21T01:29:49.570Z,22.93
2023-05-21T01:32:31.398Z,22.10
2023-05-21T01:35:12.823Z,21.07
2023-05-21T01:37:48.411Z,22.17
2023-05-21T01:40:41.687Z,21.37
2023-05-21T01:43:09.794Z,22.30
2023-05-21T01:45:40.229Z,21.27
2023-05-21T01:48:09.056Z,21.73
2023-05-21T01:50:37.548Z,22.47
2023-05-21T01:53:05.830Z,22.40
2023-05-21T01:55:32.976Z,22.43
2023-05-21T01:58:01.957Z,22.17
2023-05-21T02:00:29.414Z,21.97
2023-05-21T02:02:56.653Z,23.00
2023-05-21T02:05:23.569Z,22.27
2023-05-21T02:07:51.877Z,22.73
2023-05-21T02:10:19.293Z,23.03
2023-05-21T02:12:46.224Z,25.00
2023-05-21T02:15:14.238Z,22.57
2023-05-21T02:17:42.395Z,22.27
2023-05-21T02:20:12.300Z,23.70
2023-05-21T02:22:40.406Z,22.23
2023-05-21T02:25:08.895Z,21.87
2023-05-21T02:27:39.811Z,22.10
2023-05-21T02:30:11.819Z,22.13
2023-05-21T02:32:42.289Z,22.80
2023-05-21T02:35:10.273Z,23.53
2023-05-21T02:37:37.626Z,22.10
2023-05-21T02:40:08.211Z,23.00
2023-05-21T02:42:36.564Z,24.43
2023-05-21T02:45:03.336Z,24.27
2023-05-21T02:47:29.966Z,23.80
2023-05-21T02:50:00.311Z,24.63
2023-05-21T02:52:27.090Z,22.97
2023-05-21T02:54:53.952Z,24.03
2023-05-21T02:57:20.881Z,23.73
2023-05-21T02:59:47.549Z,24.50
2023-05-21T03:02:14.269Z,25.10
2023-05-21T03:04:46.352Z,22.53
2023-05-21T03:07:18.023Z,24.13
2023-05-21T03:09:44.654Z,23.43
2023-05-21T03:12:11.540Z,24.33
2023-05-21T03:14:38.685Z,24.27
2023-05-21T03:17:08.682Z,25.30
2023-05-21T03:19:36.270Z,24.00
2023-05-21T03:22:04.056Z,24.50
2023-05-21T03:24:31.662Z,24.67
2023-05-21T03:26:59.303Z,24.43
2023-05-21T03:29:25.932Z,24.53
2023-05-21T03:31:54.032Z,27.85
2023-05-21T03:34:21.062Z,24.93
2023-05-21T03:36:48.095Z,24.57
2023-05-21T03:39:14.820Z,24.03
2023-05-21T03:41:41.753Z,24.43
2023-05-21T03:44:08.683Z,25.40
2023-05-21T03:46:35.462Z,24.33
2023-05-21T03:49:02.416Z,23.53
2023-05-21T03:51:30.388Z,24.97
2023-05-21T03:53:59.027Z,25.60
2023-05-21T03:56:26.205Z,25.03
2023-05-21T03:58:53.207Z,24.97
2023-05-21T04:01:19.990Z,25.53
2023-05-21T04:03:47.042Z,25.67
2023-05-21T04:06:14.084Z,24.87
2023-05-21T04:08:40.834Z,25.03
2023-05-21T04:11:07.532Z,24.23
2023-05-21T04:13:34.200Z,24.20
2023-05-21T04:16:01.071Z,25.27
2023-05-21T04:18:28.000Z,26.50
2023-05-21T04:20:54.884Z,25.40
2023-05-21T04:23:23.800Z,24.63
2023-05-21T04:25:51.033Z,24.77
2023-05-21T04:28:21.081Z,24.10
2023-05-21T04:30:48.238Z,23.53
2023-05-21T04:33:18.214Z,25.17
2023-05-21T04:35:50.048Z,24.13
2023-05-21T04:38:19.513Z,25.43
2023-05-21T04:40:52.788Z,24.40
2023-05-21T04:43:26.678Z,24.73
2023-05-21T04:45:56.774Z,25.03
2023-05-21T04:48:24.846Z,24.50
2023-05-21T04:50:53.445Z,24.47
2023-05-21T04:53:20.100Z,24.17
2023-05-21T04:55:46.960Z,22.53
2023-05-21T04:58:13.849Z,25.23
2023-05-21T05:00:42.147Z,24.37
2023-05-21T05:03:08.906Z,23.50
2023-05-21T05:05:35.900Z,23.90
2023-05-21T05:08:03.965Z,23.63
2023-05-21T05:10:30.684Z,22.87
2023-05-21T05:12:57.279Z,24.27
2023-05-21T05:15:24.200Z,23.90
2023-05-21T05:17:50.884Z,24.20
2023-05-21T05:20:17.678Z,23.33
2023-05-21T05:22:44.402Z,23.57
2023-05-21T05:25:11.147Z,24.30
2023-05-21T05:27:38.607Z,23.77
2023-05-21T05:30:06.695Z,21.97
2023-05-21T05:32:33.431Z,24.30
2023-05-21T05:35:02.237Z,23.10
2023-05-21T05:37:29.336Z,22.03
2023-05-21T05:39:56.005Z,22.77
2023-05-21T05:42:22.849Z,22.73
2023-05-21T05:44:49.517Z,23.37
2023-05-21T05:47:16.569Z,23.80
2023-05-21T05:49:43.358Z,21.83
2023-05-21T05:52:10.037Z,21.70
2023-05-21T05:54:36.698Z,21.33
2023-05-21T05:57:03.597Z,22.57
2023-05-21T05:59:30.773Z,22.20
2023-05-21T06:01:57.519Z,24.73
2023-05-21T06:04:24.094Z,21.10
2023-05-21T06:06:50.886Z,21.50
2023-05-21T06:09:17.858Z,22.13
2023-05-21T06:11:44.544Z,21.93
2023-05-21T06:14:11.125Z,20.93
2023-05-21T06:16:37.920Z,20.70
2023-05-21T06:19:04.742Z,21.30
2023-05-21T06:21:31.533Z,20.83
2023-05-21T06:23:58.328Z,21.30
2023-05-21T06:26:25.122Z,21.83
2023-05-21T06:28:51.998Z,20.87
2023-05-21T06:31:18.881Z,20.20
2023-05-21T06:33:45.720Z,19.70
2023-05-21T06:36:12.520Z,18.47
2023-05-21T06:38:39.186Z,18.53
2023-05-21T06:41:05.893Z,18.10
2023-05-21T06:43:32.465Z,19.57
2023-05-21T06:45:59.154Z,19.77
2023-05-21T06:48:26.276Z,17.63
2023-05-21T06:50:53.067Z,18.27
2023-05-21T06:53:19.691Z,19.53
2023-05-21T06:55:46.551Z,19.90
2023-05-21T06:58:13.231Z,20.57
2023-05-21T07:00:39.828Z,18.53
2023-05-21T07:03:06.676Z,19.30
2023-05-21T07:05:33.400Z,19.20
2023-05-21T07:07:59.993Z,20.17
2023-05-21T07:10:26.679Z,19.97
2023-05-21T07:12:53.326Z,20.40
2023-05-21T07:15:20.011Z,19.95
2023-05-21T07:17:47.033Z,18.60
2023-05-21T07:20:13.859Z,18.47
2023-05-21T07:22:41.203Z,19.53
2023-05-21T07:25:08.321Z,20.33
2023-05-21T07:27:35.593Z,17.93
2023-05-21T07:30:02.416Z,18.47
2023-05-21T07:32:29.214Z,17.87
2023-05-21T07:34:56.596Z,17.63
2023-05-21T07:37:23.644Z,18.27
2023-05-21T07:39:50.390Z,17.67
2023-05-21T07:42:16.970Z,16.27
2023-05-21T07:44:43.994Z,16.47
2023-05-21T07:47:10.942Z,16.77
2023-05-21T07:49:37.565Z,16.73
2023-05-21T07:52:04.516Z,15.60
2023-05-21T07:54:31.384Z,15.63
2023-05-21T07:56:58.024Z,16.33
2023-05-21T07:59:25.330Z,17.33
2023-05-21T08:01:51.928Z,17.50
2023-05-21T08:04:18.723Z,17.33
2023-05-21T08:06:45.563Z,16.77
2023-05-21T08:09:12.327Z,17.03
2023-05-21T08:11:39.076Z,14.77
2023-05-21T08:14:05.995Z,13.07
2023-05-21T08:16:32.902Z,12.67
2023-05-21T08:18:59.701Z,12.40
2023-05-21T08:21:26.305Z,13.83
2023-05-21T08:23:53.182Z,13.43
2023-05-21T08:26:19.811Z,12.83
2023-05-21T08:28:46.481Z,12.63
2023-05-21T08:31:13.203Z,11.40
2023-05-21T08:33:39.909Z,11.97
2023-05-21T08:36:06.950Z,12.00
2023-05-21T08:38:34.276Z,11.23
2023-05-21T08:41:01.038Z,12.80
2023-05-21T08:43:28.357Z,12.40
2023-05-21T08:45:57.170Z,12.30
2023-05-21T08:48:24.688Z,12.03
2023-05-21T08:50:55.033Z,11.37
2023-05-21T08:53:28.005Z,11.83
2023-05-21T08:55:57.040Z,11.60
2023-05-21T08:58:23.710Z,12.87
2023-05-21T09:00:50.665Z,12.00
2023-05-21T09:03:17.514Z,11.77
2023-05-21T09:05:45.828Z,11.73
2023-05-21T09:08:21.681Z,11.53
2023-05-21T09:10:52.419Z,12.30
2023-05-21T09:13:20.416Z,12.27
2023-05-21T09:15:48.095Z,11.97
2023-05-21T09:18:14.931Z,11.57
2023-05-21T09:20:41.717Z,11.67
2023-05-21T09:23:12.391Z,11.70
2023-05-21T09:25:39.901Z,11.93
2023-05-21T09:28:15.392Z,11.47
2023-05-21T09:30:49.780Z,11.33
2023-05-21T09:33:29.499Z,11.20
2023-05-21T09:35:56.497Z,11.60
2023-05-21T09:38:24.013Z,11.00
2023-05-21T09:40:50.718Z,11.60
2023-05-21T09:43:17.613Z,11.93
2023-05-21T09:45:52.387Z,11.77
2023-05-21T09:48:34.620Z,11.33
2023-05-21T09:51:17.863Z,11.30
2023-05-21T09:53:52.016Z,10.63
2023-05-21T09:56:24.466Z,11.97
2023-05-21T09:59:00.431Z,10.77
2023-05-21T10:01:28.656Z,10.57
2023-05-21T10:03:57.744Z,11.50
2023-05-21T10:06:32.250Z,10.20
2023-05-21T10:09:03.969Z,10.70
2023-05-21T10:11:32.549Z,10.37
2023-05-21T10:14:10.293Z,9.87
2023-05-21T10:16:37.684Z,10.20
2023-05-21T10:19:10.919Z,9.73
2023-05-21T10:21:39.738Z,9.03
2023-05-21T10:24:09.897Z,9.37
2023-05-21T10:26:37.090Z,9.50
2023-05-21T10:29:04.252Z,9.33
2023-05-21T10:31:33.168Z,9.90
2023-05-21T10:34:00.996Z,9.80
2023-05-21T10:36:33.940Z,8.52
2023-05-21T10:39:01.155Z,9.27
2023-05-21T10:41:28.749Z,8.85
2023-05-21T10:44:00.822Z,9.77
2023-05-21T10:46:37.110Z,9.93
2023-05-21T10:49:12.618Z,10.18
2023-05-21T10:52:02.978Z,8.98
2023-05-21T10:54:56.058Z,8.82
2023-05-21T10:57:35.134Z,9.85
2023-05-21T11:00:03.864Z,9.55
2023-05-21T11:02:31.331Z,8.90
2023-05-21T11:04:59.159Z,10.15
2023-05-21T11:07:46.236Z,8.63
2023-05-21T11:10:32.797Z,8.95
2023-05-21T11:13:06.752Z,9.15
2023-05-21T11:15:53.780Z,9.25
2023-05-21T11:18:20.925Z,9.23
2023-05-21T11:20:51.875Z,8.73
2023-05-21T11:23:22.025Z,9.75
2023-05-21T11:26:01.863Z,8.73
2023-05-21T11:28:35.047Z,8.75
2023-05-21T11:31:24.682Z,8.77
2023-05-21T11:34:10.662Z,8.35
2023-05-21T11:36:38.129Z,7.85
2023-05-21T11:39:15.931Z,8.35
2023-05-21T11:41:52.675Z,8.35
2023-05-21T11:44:22.213Z,7.97
2023-05-21T11:46:49.384Z,7.70
2023-05-21T11:49:16.591Z,7.90
2023-05-21T11:51:43.744Z,7.10
2023-05-21T11:54:11.952Z,8.25
2023-05-21T11:56:41.843Z,7.35
2023-05-21T11:59:17.162Z,7.28
2023-05-21T12:01:45.812Z,8.20
2023-05-21T12:04:13.423Z,8.10
2023-05-21T12:06:43.602Z,8.43
2023-05-21T12:09:11.194Z,7.15
2023-05-21T12:11:41.908Z,7.68
2023-05-21T12:14:09.768Z,8.00
2023-05-21T12:16:37.080Z,8.05
2023-05-21T12:19:20.074Z,7.43
2023-05-21T12:21:47.247Z,7.57
2023-05-21T12:24:16.283Z,7.88
2023-05-21T12:26:45.928Z,7.93
2023-05-21T12:29:13.074Z,7.57
2023-05-21T12:31:49.775Z,7.53
2023-05-21T12:34:20.029Z,7.28
2023-05-21T12:36:48.322Z,7.72
2023-05-21T12:39:16.150Z,7.78
2023-05-21T12:41:44.176Z,8.43
2023-05-21T12:44:12.455Z,7.30
2023-05-21T12:46:39.564Z,7.85
2023-05-21T12:49:06.678Z,9.00
2023-05-21T12:51:42.913Z,8.27
2023-05-21T12:54:14.034Z,8.10
2023-05-21T12:56:47.232Z,6.95
2023-05-21T12:59:17.564Z,7.82
2023-05-21T13:01:48.102Z,7.90
2023-05-21T13:04:15.347Z,7.00
2023-05-21T13:06:43.081Z,8.73
2023-05-21T13:09:10.161Z,7.05
2023-05-21T13:11:37.200Z,6.90
2023-05-21T13:14:04.294Z,7.50
2023-05-21T13:16:31.474Z,7.28
2023-05-21T13:18:58.556Z,7.65
2023-05-21T13:21:25.664Z,7.68
2023-05-21T13:23:52.751Z,7.00
2023-05-21T13:26:19.779Z,6.88
2023-05-21T13:28:46.794Z,6.85
2023-05-21T13:31:15.590Z,7.15
2023-05-21T13:33:42.721Z,7.30
2023-05-21T13:36:10.210Z,6.00
2023-05-21T13:38:37.276Z,6.63
2023-05-21T13:41:04.351Z,6.70
2023-05-21T13:43:31.390Z,6.70
2023-05-21T13:45:58.484Z,6.90
2023-05-21T13:48:25.517Z,6.88
2023-05-21T13:50:52.599Z,6.53
2023-05-21T13:53:20.780Z,6.55
2023-05-21T13:55:47.910Z,6.93
2023-05-21T13:58:15.009Z,7.15
2023-05-21T14:00:43.029Z,7.10
2023-05-21T14:03:11.291Z,6.10
2023-05-21T14:05:39.302Z,6.78
2023-05-21T14:08:06.688Z,7.05
2023-05-21T14:10:33.773Z,6.60
2023-05-21T14:13:07.816Z,6.32
2023-05-21T14:15:45.976Z,6.75
2023-05-21T14:18:13.046Z,6.72
2023-05-21T14:20:40.133Z,7.03
2023-05-21T14:23:07.293Z,6.47
2023-05-21T14:25:34.686Z,6.57
2023-05-21T14:28:01.881Z,6.30
2023-05-21T14:30:28.903Z,5.60
2023-05-21T14:32:57.890Z,5.88
2023-05-21T14:35:25.326Z,5.78
2023-05-21T14:37:53.475Z,5.90
2023-05-21T14:40:20.821Z,6.40
2023-05-21T14:42:47.831Z,5.90
2023-05-21T14:45:21.261Z,6.20
2023-05-21T14:47:48.642Z,6.85
2023-05-21T14:50:16.058Z,6.03
2023-05-21T14:52:43.280Z,5.70
2023-05-21T14:55:10.820Z,5.60
2023-05-21T14:57:37.864Z,5.75
2023-05-21T15:00:05.833Z,6.07
2023-05-21T15:02:33.191Z,5.07
2023-05-21T15:05:00.405Z,4.30
2023-05-21T15:07:27.430Z,4.35
2023-05-21T15:09:54.468Z,4.00
2023-05-21T15:12:21.534Z,4.50
2023-05-21T15:14:48.733Z,4.72
2023-05-21T15:17:15.958Z,4.63
2023-05-21T15:19:43.106Z,4.85
2023-05-21T15:22:10.302Z,4.63
2023-05-21T15:24:37.422Z,4.80
2023-05-21T15:27:04.613Z,4.68
2023-05-21T15:29:31.807Z,4.88
2023-05-21T15:31:59.981Z,4.93
2023-05-21T15:34:27.238Z,5.50
2023-05-21T15:36:54.314Z,4.90
2023-05-21T15:39:21.435Z,5.80
2023-05-21T15:41:48.508Z,5.45
2023-05-21T15:44:15.647Z,5.88
2023-05-21T15:46:42.766Z,5.85
2023-05-21T15:49:10.063Z,5.90
2023-05-21T15:51:37.214Z,6.07
2023-05-21T15:54:04.317Z,5.95
2023-05-21T15:56:31.380Z,5.53
2023-05-21T15:59:01.327Z,6.25
2023-05-21T16:01:29.094Z,6.05
2023-05-21T16:03:56.284Z,5.90
2023-05-21T16:06:23.409Z,6.07
2023-05-21T16:08:50.455Z,5.82
2023-05-21T16:11:17.508Z,6.15
2023-05-21T16:13:44.608Z,6.68
2023-05-21T16:16:11.668Z,6.53
2023-05-21T16:18:38.899Z,5.93
2023-05-21T16:21:06.006Z,6.65
2023-05-21T16:23:34.121Z,5.82
2023-05-21T16:26:01.305Z,6.10
2023-05-21T16:28:29.542Z,6.10
2023-05-21T16:30:56.584Z,5.95
2023-05-21T16:33:23.663Z,6.15
2023-05-21T16:35:50.558Z,6.68
2023-05-21T16:38:17.211Z,6.15
2023-05-21T16:40:45.254Z,6.35
2023-05-21T16:43:11.866Z,5.95
2023-05-21T16:45:43.297Z,6.38
2023-05-21T16:48:10.938Z,7.13
2023-05-21T16:50:37.840Z,7.55
2023-05-21T16:53:06.078Z,7.30
2023-05-21T16:55:33.879Z,6.80
2023-05-21T16:58:01.634Z,6.50
2023-05-21T17:00:28.979Z,6.85
2023-05-21T17:02:55.824Z,6.70
2023-05-21T17:05:23.453Z,7.75
2023-05-21T17:07:50.164Z,6.60
2023-05-21T17:10:16.852Z,6.93
2023-05-21T17:12:43.445Z,6.63
2023-05-21T17:15:10.408Z,6.35
2023-05-21T17:17:37.080Z,6.53
2023-05-21T17:20:04.316Z,5.97
2023-05-21T17:22:31.186Z,6.35
2023-05-21T17:24:58.610Z,6.82
2023-05-21T17:27:25.502Z,6.90
2023-05-21T17:29:52.126Z,6.43
2023-05-21T17:32:20.745Z,7.40
2023-05-21T17:34:50.058Z,7.47
2023-05-21T17:37:16.667Z,6.63
2023-05-21T17:39:43.266Z,6.95
2023-05-21T17:42:10.036Z,7.50
2023-05-21T17:44:36.581Z,7.07
2023-05-21T17:47:03.267Z,7.10
2023-05-21T17:49:29.948Z,7.40
2023-05-21T17:51:56.622Z,6.55
2023-05-21T17:54:23.264Z,7.05
2023-05-21T17:56:49.862Z,7.90
2023-05-21T17:59:16.544Z,7.33
2023-05-21T18:01:43.197Z,7.43
2023-05-21T18:04:11.906Z,8.20
2023-05-21T18:06:39.580Z,8.70
2023-05-21T18:09:13.111Z,7.83
2023-05-21T18:11:42.346Z,7.53
2023-05-21T18:14:08.943Z,7.70
2023-05-21T18:16:35.708Z,8.03
2023-05-21T18:19:05.574Z,8.20
2023-05-21T18:21:35.404Z,8.00
2023-05-21T18:24:02.832Z,8.27
2023-05-21T18:26:30.258Z,9.07
2023-05-21T18:28:57.927Z,9.37
2023-05-21T18:31:25.331Z,8.57
2023-05-21T18:33:51.990Z,7.73
2023-05-21T18:36:18.650Z,8.73
2023-05-21T18:38:45.278Z,11.60
2023-05-21T18:41:11.937Z,9.80
2023-05-21T18:43:38.618Z,8.40
2023-05-21T18:46:05.271Z,8.50
2023-05-21T18:48:31.980Z,9.37
2023-05-21T18:50:58.756Z,9.37
2023-05-21T18:53:25.404Z,9.47
2023-05-21T18:55:52.049Z,9.43
2023-05-21T18:58:18.633Z,10.33
2023-05-21T19:00:45.273Z,9.33
2023-05-21T19:03:12.545Z,9.33
2023-05-21T19:05:39.223Z,9.07
2023-05-21T19:08:06.018Z,9.50
2023-05-21T19:10:32.731Z,9.00
2023-05-21T19:12:59.381Z,9.70
2023-05-21T19:15:25.954Z,9.27
2023-05-21T19:17:52.620Z,10.70
2023-05-21T19:20:27.051Z,10.30
2023-05-21T19:22:54.487Z,9.53
2023-05-21T19:25:21.300Z,10.17
2023-05-21T19:27:47.935Z,10.60
2023-05-21T19:30:14.633Z,10.17
2023-05-21T19:32:41.512Z,9.83
2023-05-21T19:35:08.441Z,10.27
2023-05-21T19:37:35.110Z,10.17
2023-05-21T19:40:01.733Z,10.80
2023-05-21T19:42:29.002Z,11.27
2023-05-21T19:44:55.713Z,10.83
2023-05-21T19:47:22.588Z,10.87
2023-05-21T19:49:49.290Z,10.67
2023-05-21T19:52:16.152Z,11.47
2023-05-21T19:54:42.971Z,12.02
2023-05-21T19:57:12.128Z,11.27
2023-05-21T19:59:39.165Z,11.33
2023-05-21T20:02:06.030Z,11.70
2023-05-21T20:04:32.658Z,11.43
2023-05-21T20:06:59.246Z,11.87
2023-05-21T20:09:25.878Z,11.50
2023-05-21T20:11:52.478Z,12.20
2023-05-21T20:14:19.075Z,12.07
2023-05-21T20:16:47.078Z,12.17
2023-05-21T20:19:15.401Z,12.10
2023-05-21T20:21:42.264Z,12.73
2023-05-21T20:24:08.933Z,13.50
2023-05-21T20:26:36.364Z,13.97
2023-05-21T20:29:03.019Z,15.70
2023-05-21T20:31:29.887Z,14.93
2023-05-21T20:33:56.531Z,16.97
2023-05-21T20:36:23.749Z,17.50
2023-05-21T20:38:50.400Z,15.70
2023-05-21T20:41:17.127Z,14.80
2023-05-21T20:43:45.289Z,15.80
2023-05-21T20:46:12.064Z,14.57
2023-05-21T20:48:38.680Z,14.87
2023-05-21T20:51:05.362Z,14.53
2023-05-21T20:53:32.037Z,14.20
2023-05-21T20:56:01.445Z,14.77
2023-05-21T20:58:28.215Z,13.77
2023-05-21T21:00:55.239Z,13.90
2023-05-21T21:03:22.195Z,13.40
2023-05-21T21:05:48.997Z,13.27
2023-05-21T21:08:16.127Z,14.40
2023-05-21T21:10:46.524Z,13.10
2023-05-21T21:13:14.060Z,14.13
2023-05-21T21:15:40.921Z,13.57
2023-05-21T21:18:07.589Z,13.77
2023-05-21T21:20:34.349Z,13.90
2023-05-21T21:23:01.004Z,15.50
2023-05-21T21:25:27.606Z,13.87
2023-05-21T21:27:54.215Z,14.30
2023-05-21T21:30:20.872Z,14.23
2023-05-21T21:32:49.334Z,14.10
2023-05-21T21:35:16.094Z,13.63
2023-05-21T21:37:42.897Z,12.70
2023-05-21T21:40:09.792Z,13.43
2023-05-21T21:42:36.437Z,12.93
2023-05-21T21:45:03.949Z,13.60
2023-05-21T21:47:30.800Z,14.17
2023-05-21T21:49:57.389Z,14.40
2023-05-21T21:52:27.347Z,13.83
2023-05-21T21:54:55.449Z,14.60
2023-05-21T21:57:22.229Z,15.03
2023-05-21T21:59:48.821Z,15.23
2023-05-21T22:02:17.786Z,14.60
2023-05-21T22:04:45.066Z,14.30
2023-05-21T22:07:17.892Z,15.17
2023-05-21T22:09:45.530Z,14.30
2023-05-21T22:12:12.905Z,13.80
2023-05-21T22:14:39.541Z,16.20
2023-05-21T22:17:08.415Z,14.87
2023-05-21T22:19:35.819Z,14.90
2023-05-21T22:22:04.002Z,13.73
2023-05-21T22:24:32.422Z,15.70
2023-05-21T22:26:59.994Z,16.57
2023-05-21T22:29:26.598Z,15.83
2023-05-21T22:31:53.210Z,14.47
2023-05-21T22:34:20.112Z,15.40
2023-05-21T22:36:47.269Z,15.50
2023-05-21T22:39:14.073Z,16.17
2023-05-21T22:41:40.833Z,15.93
2023-05-21T22:44:07.406Z,15.97
2023-05-21T22:46:35.376Z,15.73
2023-05-21T22:49:03.045Z,15.63
2023-05-21T22:51:34.342Z,14.73
2023-05-21T22:54:01.629Z,15.53
2023-05-21T22:56:28.347Z,15.57
2023-05-21T22:58:55.811Z,15.70
2023-05-21T23:01:22.868Z,16.33
2023-05-21T23:03:49.497Z,15.37
2023-05-21T23:06:16.155Z,15.90
2023-05-21T23:08:42.835Z,16.73
2023-05-21T23:11:09.714Z,15.97
2023-05-21T23:13:36.345Z,16.30
2023-05-21T23:16:03.231Z,16.83
2023-05-21T23:18:29.889Z,15.57
2023-05-21T23:20:56.910Z,15.77
2023-05-21T23:23:23.534Z,15.90
2023-05-21T23:25:51.899Z,15.80
2023-05-21T23:28:18.960Z,15.87
2023-05-21T23:30:46.362Z,16.87
2023-05-21T23:33:13.777Z,15.87
2023-05-21T23:35:40.718Z,17.30
2023-05-21T23:38:07.396Z,17.37
2023-05-21T23:40:34.123Z,16.60
2023-05-21T23:43:01.023Z,16.10
2023-05-21T23:45:28.786Z,16.60
2023-05-21T23:47:57.034Z,16.27
2023-05-21T23:50:27.197Z,16.67
2023-05-21T23:53:09.954Z,17.67
2023-05-21T23:55:54.780Z,17.40
2023-05-21T23:58:37.619Z,16.20
